La Coruña, España

10:26 PM CEST en Agosto 20, 2014 (GMT +0200)
Playa de Riazor | Change Station
CLOSE
Current Station
Estación meteorológica personal
Location: RIAZOR, METEOCORUA
Altura: 30 ft
Estaciones meteorológicas cercanas

Alt 30 ft 43.37 °N, 8.41 °W | Updated 3 minutes ago

Clear
Despejado
64.9 ° F
Sensación térmica 64.9 ° F
N
6.9
Viento Variable Viento desde NE
Gusts 11.5 mph

Hoy
Alta -- | Baja -- ° F
--% Posibilidad de precipitaciones
Ayer
Alta -- | Baja -- ° F
Precip. -- pul
7:44 AM 9:29 PM
Creciente menguante, 19% visible
Presión 30.09 pul
Visibilidad -9999.0 Millas
Nubes
Punto de rocío 51 ° F
Humedad 61%
Precipitaciones 0.00 pul
Espesor de la nieve No disponible.
UV No disponible.
Polen No disponible.
Calidad del aire No disponible.
Flu Activity No disponible.
METAR LEST 202000Z 01006KT 340V040 CAVOK 15/12 Q1019 NOSIG

More Conditions Fewer Conditions

Presión 30.09 pul
Visibilidad -9999.0 Millas
Nubes
Punto de rocío 51 ° F
Humedad 61%
Precipitaciones 0.00 pul
Espesor de la nieve No disponible.
UV No disponible.
Polen No disponible.
Calidad del aire No disponible.
Flu Activity No disponible.
METAR LEST 202000Z 01006KT 340V040 CAVOK 15/12 Q1019 NOSIG

More Conditions Fewer Conditions

10-Day Weather Forecast

Almanac

Astronomía

Aug. 20, 2014 Salida Puesta
Hora real 7:44 AM CEST 9:29 PM CEST
Crepúsculo civil 7:13 AM CEST 9:59 PM CEST
Crepúsculo náutico 6:36 AM CEST 10:36 PM CEST
Crepúsculo astronómico 5:56 AM CEST 11:16 PM CEST
Luna 3:09 AM CEST 6:06 PM CEST
Horas de luz 14h 45m
Horas de luz
13h 45m
Tomorrow will be 2m 43s shorter.
Creciente menguante, 19% of the Moon is Illuminated
Hoy
Creciente menguante
Ago 25
Nueva
Sep 2
Cuarto creciente
Sep 8
Luna llena
Sep 15
Cuarto menguante

Extremos de hoy

Máximos del país Bajas del país

Community

WunderPhotos

Upload Photos

1,745,750 ¡fotos cargadas!

WunderBlogs® & News

By Dr. Jeff Masters
Director of Meteorology, Weather Underground
By Kari Strenfel
Meteorologist, Weather Underground
By Christopher C. Burt
Weather Historian, Weather Underground
August 20, 2014
August 20, 2014
August 20, 2014

Nearby

Calidad del aire

Not available.

Grosos de nieve

Not available.

Actividad de terremotos

Ciudad Distance Mag. Tiempo y dato
No hay informes recientes de la actividad sísmica.
Magnitud mínima muestra es 2,5.

Temperaturas de aguas costeras

Lugar Temperatura
Sin partes meteorológicos de las estaciones

Estaciones meteorológicas cercanas